Flight Track Log - Related Links

Times and Time Zones

All times are in EST time to prevent confusion due to time zone crossing. See the EJA829P flight status page for this flight to view local times or setup timezone preferences in your user account.

Time Position Orientation Groundspeed Altitude Reporting Facility
EST Latitude Longitude Course Direction KTS MPH feet Rate Location/Type
Mon 02:15:37 PM 37.4833 -77.3333 231° Southwest 181 208 2,100  Level Potomac TRACON
Mon 02:16:52 PM 37.4444 -77.3942 231° Southwest 195 224 6,600 3,111 Climbing Washington Center
Mon 02:17:52 PM 37.5000 -77.4319 332° Northwest 139 160 9,100 2,237 Climbing Washington Center
Mon 02:18:50 PM 37.5706 -77.4522 347° North 169 194 11,000 958 Climbing Washington Center
Mon 02:19:51 PM 37.6558 -77.4803 345° North 244 281 11,000  Level Washington Center
Mon 02:20:51 PM 37.7389 -77.5061 346° North 288 331 11,000  Level Washington Center
Mon 02:21:52 PM 37.8239 -77.5344 345° North 309 356 11,000  Level Washington Center
Mon 02:22:52 PM 37.9069 -77.5603 346° North 309 356 11,000  Level Washington Center
Mon 02:23:50 PM 37.9925 -77.5547 North 309 356 11,000 -50 Level Washington Center
Mon 02:24:51 PM 38.0850 -77.5044 23° Northeast 306 352 10,900 -295 Descending Washington Center
Mon 02:25:52 PM 38.1628 -77.4589 25° Northeast 316 364 10,400 -496 Descending Washington Center
Mon 02:26:52 PM 38.2342 -77.4369 14° North 289 333 9,900 -256 Descending Washington Center
Mon 02:27:49 PM 38.3075 -77.4200 10° North 263 303 9,900 -508 Level Washington Center
Mon 02:28:50 PM 38.3828 -77.4061 North 263 303 8,900 -1,230 Descending Washington Center
Mon 02:29:51 PM 38.4581 -77.3919 North 263 303 7,400 -1,475 Descending Washington Center
Mon 02:30:52 PM 38.5333 -77.3753 10° North 268 308 5,900 -1,261 Descending Washington Center
Mon 02:31:50 PM 38.6064 -77.3636 North 268 308 4,900 -504 Descending Washington Center
Mon 02:32:51 PM 38.6794 -77.3628 North 268 308 4,900 -366 Level Washington Center
Mon 02:34:01 PM 38.7667 -77.3500 North 261 300 4,100 -432 Descending Potomac TRACON
Mon 02:34:56 PM 38.8333 -77.3500 360° North 259 298 4,000 -52 Descending Potomac TRACON
Mon 02:35:56 PM 38.9000 -77.3500 360° North 256 295 4,000 -450 Level Potomac TRACON
Mon 02:36:56 PM 38.9833 -77.3500 360° North 266 306 3,100 -500 Descending Potomac TRACON
Mon 02:37:56 PM 39.0500 -77.3500 360° North 258 297 3,000 -50 Descending Potomac TRACON
Mon 02:38:56 PM 39.1167 -77.3667 349° North 242 278 3,000 -149 Level Potomac TRACON
Mon 02:39:57 PM 39.0833 -77.4167 229° Southwest 183 211 2,700 -545 Descending Potomac TRACON
Mon 02:40:57 PM 39.0333 -77.4333 195° South 159 183 1,900 -850 Descending Potomac TRACON
Mon 02:41:57 PM 39.0000 -77.4333 180° South 135 155 1,000 -678 Descending Potomac TRACON
Mon 02:42:52 PM 38.9667 -77.4333 180° South 109 125 600 -436 Descending Potomac TRACON
Mon 02:44:00 PM 38.9474 -77.4599 195° South  Level Estimated
Mon 02:51:00 PM 38.9474 -77.4599 195° South  Level Estimated
Mon 02:52:00 PM 38.9474 -77.4599 195° South  Level Estimated

Login

Don't have an account? Register now (free) for customized features, flight alerts, and more!